createdAt,value
2023-09-30T00:03:35.627Z,99651.42
2023-09-30T00:14:00.209Z,99667.35
2023-09-30T00:24:24.090Z,99669.66
2023-09-30T00:34:48.552Z,99681.31
2023-09-30T00:45:13.615Z,99685.00
2023-09-30T00:55:38.229Z,99695.00
2023-09-30T01:06:02.712Z,99700.91
2023-09-30T01:16:26.697Z,99708.83
2023-09-30T01:26:50.668Z,99713.42
2023-09-30T01:37:15.018Z,99716.73
2023-09-30T01:47:40.191Z,99722.10
2023-09-30T01:58:04.331Z,99734.14
2023-09-30T02:08:28.768Z,99734.59
2023-09-30T02:18:53.446Z,99733.22
2023-09-30T02:29:17.265Z,99744.25
2023-09-30T02:39:42.071Z,99756.52
2023-09-30T02:50:09.856Z,99765.88
2023-09-30T03:00:37.067Z,99776.53
2023-09-30T03:11:01.597Z,99785.78
2023-09-30T03:21:25.678Z,99789.96
2023-09-30T03:31:49.357Z,99800.67
2023-09-30T03:42:14.043Z,99810.86
2023-09-30T03:52:38.576Z,99835.98
2023-09-30T04:03:04.240Z,99869.77
2023-09-30T04:13:30.851Z,99892.20
2023-09-30T04:23:55.710Z,99916.91
2023-09-30T04:34:20.521Z,99937.39
2023-09-30T04:44:45.259Z,99957.70
2023-09-30T04:55:10.439Z,99972.60
2023-09-30T05:05:35.701Z,99997.08
2023-09-30T05:16:00.700Z,100016.98
2023-09-30T05:26:24.971Z,100028.38
2023-09-30T05:36:49.960Z,100037.94
2023-09-30T05:47:17.077Z,100060.32
2023-09-30T05:57:41.911Z,100088.66
2023-09-30T06:08:06.514Z,100082.61
2023-09-30T06:18:31.122Z,100096.64
2023-09-30T06:28:57.533Z,100126.15
2023-09-30T06:39:21.493Z,100140.83
2023-09-30T06:49:46.750Z,100157.27
2023-09-30T07:00:13.447Z,100157.20
2023-09-30T07:10:38.155Z,100174.33
2023-09-30T07:21:03.093Z,100192.00
2023-09-30T07:31:28.737Z,100206.98
2023-09-30T07:41:52.353Z,100219.85
2023-09-30T07:52:17.034Z,100240.01
2023-09-30T08:02:42.085Z,100258.09
2023-09-30T08:13:06.991Z,100268.64
2023-09-30T08:23:32.461Z,100283.91
2023-09-30T08:33:56.822Z,100285.83
2023-09-30T08:44:21.012Z,100287.77
2023-09-30T08:54:45.516Z,100285.40
2023-09-30T09:05:12.028Z,100274.20
2023-09-30T09:15:36.445Z,100265.29
2023-09-30T09:26:01.302Z,100282.15
2023-09-30T09:36:50.055Z,100279.73
2023-09-30T09:47:15.784Z,100291.77
2023-09-30T09:57:42.149Z,100289.13
2023-09-30T10:08:17.381Z,100288.52
2023-09-30T10:19:14.284Z,100285.08
2023-09-30T10:29:45.357Z,100295.15
2023-09-30T10:40:11.004Z,100292.95
2023-09-30T10:50:52.353Z,100290.23
2023-09-30T11:01:22.869Z,100295.31
2023-09-30T11:11:52.134Z,100299.05
2023-09-30T11:22:17.323Z,100293.59
2023-09-30T11:32:44.099Z,100291.26
2023-09-30T11:43:13.877Z,100291.33
2023-09-30T11:53:38.571Z,100293.47
2023-09-30T12:04:03.439Z,100283.72
2023-09-30T12:14:28.169Z,100280.82
2023-09-30T12:24:53.565Z,100270.45
2023-09-30T12:35:18.021Z,100267.15
2023-09-30T12:45:43.162Z,100268.86
2023-09-30T12:56:07.604Z,100262.84
2023-09-30T13:06:34.129Z,100256.77
2023-09-30T13:16:59.386Z,100245.18
2023-09-30T13:27:23.867Z,100237.10
2023-09-30T13:37:48.423Z,100229.76
2023-09-30T13:48:13.138Z,100237.31
2023-09-30T13:58:37.402Z,100236.31
2023-09-30T14:09:01.998Z,100239.86
2023-09-30T14:19:26.693Z,100247.20
2023-09-30T14:29:50.583Z,100238.80
2023-09-30T14:40:15.524Z,100236.66
2023-09-30T14:50:49.511Z,100235.00
2023-09-30T15:01:14.599Z,100235.89
2023-09-30T15:11:40.722Z,100224.83
2023-09-30T15:22:05.589Z,100237.61
2023-09-30T15:32:29.724Z,100247.33
2023-09-30T15:42:54.496Z,100248.81
2023-09-30T15:53:20.171Z,100257.23
2023-09-30T16:03:45.082Z,100256.73
2023-09-30T16:14:10.527Z,100244.58
2023-09-30T16:24:35.245Z,100244.29
2023-09-30T16:34:59.261Z,100247.04
2023-09-30T16:45:26.206Z,100253.01
2023-09-30T16:55:52.909Z,100253.74
2023-09-30T17:06:17.802Z,100269.25
2023-09-30T17:16:42.399Z,100296.75
2023-09-30T17:27:06.897Z,100296.39
2023-09-30T17:37:31.033Z,100302.98
2023-09-30T17:47:55.845Z,100295.27
2023-09-30T17:58:20.541Z,100299.02
2023-09-30T18:08:47.743Z,100308.53
2023-09-30T18:19:13.279Z,100305.94
2023-09-30T18:29:38.020Z,100299.59
2023-09-30T18:40:02.368Z,100297.97
2023-09-30T18:50:27.200Z,100311.99
2023-09-30T19:00:52.630Z,100325.52
2023-09-30T19:11:18.641Z,100331.29
2023-09-30T19:21:43.611Z,100331.66
2023-09-30T19:32:10.611Z,100335.30
2023-09-30T19:42:34.959Z,100333.33
2023-09-30T19:52:58.944Z,100333.92
2023-09-30T20:03:26.611Z,100333.92
2023-09-30T20:13:51.406Z,100328.54
2023-09-30T20:24:15.887Z,100331.13
2023-09-30T20:34:40.701Z,100334.45
2023-09-30T20:45:05.293Z,100330.54
2023-09-30T20:55:37.752Z,100330.91
2023-09-30T21:06:07.323Z,100334.75
2023-09-30T21:16:31.557Z,100334.02
2023-09-30T21:26:56.134Z,100337.41
2023-09-30T21:37:20.930Z,100342.00
2023-09-30T21:47:44.922Z,100345.21
2023-09-30T21:58:09.484Z,100345.19
2023-09-30T22:08:33.805Z,100338.63
2023-09-30T22:18:58.905Z,100336.01
2023-09-30T22:29:24.438Z,100327.50
2023-09-30T22:39:48.994Z,100333.70
2023-09-30T22:50:14.566Z,100331.11
2023-09-30T23:00:41.453Z,100342.35
2023-09-30T23:11:12.942Z,100344.06
2023-09-30T23:21:38.002Z,100342.36
2023-09-30T23:32:03.034Z,100343.95
2023-09-30T23:42:27.432Z,100353.21
2023-09-30T23:52:53.035Z,100356.20
